createdAt,value
2019-04-21T00:00:22.768Z,59.05
2019-04-21T00:02:59.591Z,60.22
2019-04-21T00:05:55.751Z,61.03
2019-04-21T00:08:33.522Z,61.44
2019-04-21T00:10:56.701Z,61.68
2019-04-21T00:13:23.366Z,61.47
2019-04-21T00:15:53.437Z,61.03
2019-04-21T00:18:51.935Z,60.45
2019-04-21T00:21:28.277Z,59.84
2019-04-21T00:24:22.723Z,58.93
2019-04-21T00:27:05.237Z,58.55
2019-04-21T00:29:42.565Z,58.19
2019-04-21T00:32:08.747Z,57.69
2019-04-21T00:34:25.992Z,57.13
2019-04-21T00:37:11.043Z,56.14
2019-04-21T00:42:25.656Z,55.55
2019-04-21T00:44:55.651Z,55.08
2019-04-21T00:47:35.826Z,54.12
2019-04-21T00:50:05.042Z,53.96
2019-04-21T00:53:02.263Z,54.11
2019-04-21T00:55:44.567Z,54.10
2019-04-21T00:58:18.353Z,53.43
2019-04-21T01:00:46.322Z,53.85
2019-04-21T01:03:24.687Z,54.18
2019-04-21T01:06:14.252Z,54.15
2019-04-21T01:08:25.276Z,53.69
2019-04-21T01:10:56.245Z,53.76
2019-04-21T01:13:54.736Z,54.07
2019-04-21T01:16:10.185Z,53.26
2019-04-21T01:18:39.447Z,53.55
2019-04-21T01:20:52.789Z,53.49
2019-04-21T01:23:25.593Z,53.64
2019-04-21T01:26:13.865Z,53.92
2019-04-21T01:28:49.555Z,54.16
2019-04-21T01:31:23.083Z,54.60
2019-04-21T01:33:59.564Z,55.09
2019-04-21T01:36:31.506Z,55.13
2019-04-21T01:39:05.517Z,55.44
2019-04-21T01:41:43.085Z,55.54
2019-04-21T01:44:22.443Z,56.03
2019-04-21T01:46:39.326Z,56.61
2019-04-21T01:49:11.562Z,56.44
2019-04-21T01:52:02.777Z,56.79
2019-04-21T01:54:55.972Z,56.66
2019-04-21T01:57:33.407Z,56.71
2019-04-21T01:59:56.992Z,57.27
2019-04-21T02:02:43.338Z,57.78
2019-04-21T02:05:17.471Z,56.70
2019-04-21T02:07:44.310Z,56.58
2019-04-21T02:10:27.360Z,56.63
2019-04-21T02:12:55.312Z,56.62
2019-04-21T02:15:30.905Z,56.27
2019-04-21T02:17:59.496Z,55.80
2019-04-21T02:20:26.875Z,55.75
2019-04-21T02:23:17.733Z,55.91
2019-04-21T02:25:45.857Z,55.71
2019-04-21T02:28:21.127Z,56.14
2019-04-21T02:31:09.017Z,56.60
2019-04-21T02:33:43.084Z,56.79
2019-04-21T02:36:27.474Z,57.08
2019-04-21T02:41:09.407Z,58.13
2019-04-21T02:43:50.131Z,58.28
2019-04-21T02:46:27.408Z,58.33
2019-04-21T02:48:59.773Z,58.60
2019-04-21T02:51:27.635Z,58.33
2019-04-21T02:56:39.989Z,57.47
2019-04-21T02:59:18.185Z,58.14
2019-04-21T03:02:16.246Z,58.17
2019-04-21T03:05:02.350Z,58.20
2019-04-21T03:07:34.677Z,58.99
2019-04-21T03:10:12.446Z,59.26
2019-04-21T03:15:25.178Z,59.04
2019-04-21T03:18:01.729Z,59.41
2019-04-21T03:23:15.232Z,60.17
2019-04-21T03:25:45.174Z,60.47
2019-04-21T03:28:18.902Z,60.59
2019-04-21T03:31:06.718Z,61.08
2019-04-21T03:36:12.999Z,61.82
2019-04-21T03:38:31.848Z,62.16
2019-04-21T03:40:57.829Z,62.20
2019-04-21T03:43:32.443Z,62.46
2019-04-21T03:45:58.774Z,62.05
2019-04-21T03:48:35.625Z,62.19
2019-04-21T03:51:16.036Z,61.36
2019-04-21T03:53:40.050Z,61.33
2019-04-21T03:56:42.361Z,62.19
2019-04-21T03:58:55.825Z,62.35
2019-04-21T04:04:35.413Z,62.62
2019-04-21T04:07:25.009Z,62.82
2019-04-21T04:09:54.090Z,62.72
2019-04-21T04:12:19.290Z,62.28
2019-04-21T04:14:55.341Z,62.32
2019-04-21T04:20:03.643Z,62.21
2019-04-21T04:22:49.672Z,62.29
2019-04-21T04:25:19.283Z,62.71
2019-04-21T04:30:22.418Z,63.05
2019-04-21T04:32:46.717Z,63.28
2019-04-21T04:35:34.510Z,63.11
2019-04-21T04:38:00.842Z,62.71
2019-04-21T04:40:38.677Z,62.19
2019-04-21T04:43:19.239Z,62.12
2019-04-21T04:45:53.636Z,62.27
2019-04-21T04:48:20.324Z,61.53
2019-04-21T04:56:03.810Z,61.60
2019-04-21T04:59:15.963Z,61.44
2019-04-21T05:01:21.607Z,61.10
2019-04-21T05:03:48.962Z,61.77
2019-04-21T05:09:27.061Z,61.15
2019-04-21T05:21:54.683Z,57.54
2019-04-21T05:24:24.068Z,57.82
2019-04-21T05:26:55.434Z,57.55
2019-04-21T05:29:29.687Z,57.26
2019-04-21T05:32:22.949Z,57.19
2019-04-21T05:35:00.153Z,57.10
2019-04-21T05:37:43.088Z,57.22
2019-04-21T05:40:24.906Z,57.35
2019-04-21T05:42:55.428Z,57.78
2019-04-21T05:45:37.309Z,57.40
2019-04-21T05:48:24.220Z,56.81
2019-04-21T05:50:46.634Z,56.88
2019-04-21T05:53:26.855Z,56.09
2019-04-21T05:55:57.772Z,56.04
2019-04-21T05:58:27.242Z,56.00
2019-04-21T06:01:14.858Z,55.89
2019-04-21T06:03:44.246Z,55.92
2019-04-21T06:06:20.654Z,56.11
2019-04-21T06:08:48.080Z,56.02
2019-04-21T06:11:28.859Z,55.64
2019-04-21T06:14:01.430Z,55.16
2019-04-21T06:16:40.701Z,55.19
2019-04-21T06:19:05.013Z,55.22
2019-04-21T06:21:40.450Z,55.24
2019-04-21T06:24:13.067Z,54.52
2019-04-21T06:29:14.995Z,54.53
2019-04-21T06:34:41.079Z,53.33
2019-04-21T06:37:32.197Z,52.55
2019-04-21T06:39:59.593Z,52.67
2019-04-21T06:42:10.882Z,52.71
2019-04-21T06:44:54.201Z,51.68
2019-04-21T06:47:30.233Z,51.81
2019-04-21T06:49:50.167Z,51.42
2019-04-21T06:52:46.205Z,51.99
2019-04-21T06:55:03.128Z,51.81
2019-04-21T06:57:35.433Z,51.09
2019-04-21T07:00:06.178Z,51.38
2019-04-21T07:03:01.212Z,51.42
2019-04-21T07:05:15.456Z,50.41
2019-04-21T07:07:57.704Z,50.55
2019-04-21T07:10:22.018Z,49.95
2019-04-21T07:12:55.863Z,49.83
2019-04-21T07:15:30.442Z,49.82
2019-04-21T07:17:58.294Z,49.77
2019-04-21T07:20:36.620Z,49.42
2019-04-21T07:23:09.493Z,49.44
2019-04-21T07:25:45.602Z,48.88
2019-04-21T07:28:19.227Z,49.22
2019-04-21T07:30:56.644Z,49.29
2019-04-21T07:33:43.435Z,49.06
2019-04-21T07:35:56.874Z,47.94
2019-04-21T07:38:32.020Z,48.36
2019-04-21T07:40:55.898Z,46.69
2019-04-21T07:43:29.986Z,47.02
2019-04-21T07:46:06.503Z,47.01
2019-04-21T07:48:52.566Z,45.50
2019-04-21T07:51:52.930Z,45.94
2019-04-21T07:54:31.457Z,47.38
2019-04-21T07:56:36.193Z,42.68
2019-04-21T07:59:39.632Z,43.50
2019-04-21T08:02:18.550Z,43.52
2019-04-21T08:07:11.749Z,43.40
2019-04-21T08:09:42.308Z,42.86
2019-04-21T08:12:15.359Z,42.81
2019-04-21T08:14:55.620Z,42.31
2019-04-21T08:17:24.549Z,41.60
2019-04-21T08:19:53.159Z,41.90
2019-04-21T08:22:33.020Z,41.62
2019-04-21T08:25:02.828Z,41.47
2019-04-21T08:27:47.753Z,41.74
2019-04-21T08:30:21.463Z,41.54
2019-04-21T08:35:49.497Z,41.23
2019-04-21T08:37:55.308Z,41.93
2019-04-21T08:40:43.993Z,39.00
2019-04-21T08:43:04.104Z,37.68
2019-04-21T08:45:45.003Z,38.24
2019-04-21T08:48:10.152Z,38.47
2019-04-21T08:50:44.500Z,37.74
2019-04-21T08:53:19.769Z,36.81
2019-04-21T08:56:21.493Z,36.17
2019-04-21T08:59:25.503Z,37.50
2019-04-21T09:02:18.052Z,38.63
2019-04-21T09:04:52.851Z,36.61
2019-04-21T09:10:00.828Z,35.80
2019-04-21T09:12:34.774Z,36.52
2019-04-21T09:15:08.071Z,34.67
2019-04-21T09:17:33.052Z,35.49
2019-04-21T09:20:18.272Z,35.10
2019-04-21T09:22:54.318Z,36.27
2019-04-21T09:26:00.420Z,35.22
2019-04-21T09:28:27.238Z,35.83
2019-04-21T09:31:01.268Z,34.21
2019-04-21T09:33:50.758Z,34.13
2019-04-21T09:40:34.419Z,34.41
2019-04-21T09:43:13.796Z,34.51
2019-04-21T09:45:54.299Z,36.14
2019-04-21T09:48:42.628Z,38.54
2019-04-21T09:51:11.155Z,33.45
2019-04-21T09:53:47.314Z,32.31
2019-04-21T09:56:23.476Z,32.77
2019-04-21T09:58:53.240Z,32.99
2019-04-21T10:01:32.236Z,32.74
2019-04-21T10:04:00.219Z,34.95
2019-04-21T10:06:30.746Z,35.29
2019-04-21T10:09:04.690Z,34.94
2019-04-21T10:11:35.598Z,33.86
2019-04-21T10:14:07.571Z,34.46
2019-04-21T10:16:59.900Z,33.92
2019-04-21T10:19:31.921Z,31.24
2019-04-21T10:22:05.903Z,31.56
2019-04-21T10:24:38.372Z,30.71
2019-04-21T10:27:12.211Z,30.79
2019-04-21T10:29:44.618Z,30.55
2019-04-21T10:32:15.556Z,31.02
2019-04-21T10:34:49.465Z,30.50
2019-04-21T10:37:34.001Z,30.62
2019-04-21T10:39:53.877Z,30.43
2019-04-21T10:42:26.895Z,30.02
2019-04-21T10:44:58.897Z,30.06
2019-04-21T10:47:31.284Z,29.92
2019-04-21T10:50:02.904Z,30.89
2019-04-21T10:52:53.154Z,30.77
2019-04-21T10:55:41.891Z,30.47
2019-04-21T10:58:10.919Z,30.52
2019-04-21T11:00:44.114Z,30.63
2019-04-21T11:03:41.412Z,30.34
2019-04-21T11:06:16.847Z,30.27
2019-04-21T11:08:51.018Z,29.54
2019-04-21T11:11:21.807Z,29.81
2019-04-21T11:13:53.037Z,31.51
2019-04-21T11:16:25.013Z,31.87
2019-04-21T11:19:00.200Z,30.54
2019-04-21T11:21:32.350Z,29.26
2019-04-21T11:24:04.432Z,29.29
2019-04-21T11:26:45.488Z,29.24
2019-04-21T11:29:17.047Z,30.80
2019-04-21T11:31:49.311Z,31.60
2019-04-21T11:34:21.185Z,31.71
2019-04-21T11:36:54.279Z,31.20
2019-04-21T11:39:38.636Z,29.03
2019-04-21T11:42:01.721Z,30.97
2019-04-21T11:44:35.195Z,29.21
2019-04-21T11:47:10.272Z,28.97
2019-04-21T11:49:43.077Z,29.05
2019-04-21T11:52:14.962Z,28.78
2019-04-21T11:54:46.858Z,29.05
2019-04-21T11:57:24.659Z,28.47
2019-04-21T11:59:53.501Z,28.36
2019-04-21T12:02:25.753Z,28.77
2019-04-21T12:04:58.978Z,28.53
2019-04-21T12:07:31.257Z,28.90
2019-04-21T12:10:03.706Z,29.03
2019-04-21T12:12:37.123Z,28.92
2019-04-21T12:15:11.240Z,28.63
2019-04-21T12:17:43.993Z,28.68
2019-04-21T12:20:16.748Z,28.62
2019-04-21T12:22:49.420Z,27.99
2019-04-21T12:25:22.995Z,28.24
2019-04-21T12:27:59.342Z,28.68
2019-04-21T12:30:31.583Z,28.90
2019-04-21T12:33:07.716Z,28.41
2019-04-21T12:35:39.720Z,27.49
2019-04-21T12:38:11.018Z,27.63
2019-04-21T12:40:42.810Z,27.67
2019-04-21T12:43:14.824Z,27.84
2019-04-21T12:45:46.126Z,28.04
2019-04-21T12:48:18.029Z,27.79
2019-04-21T12:50:50.345Z,27.32
2019-04-21T12:53:23.404Z,28.53
2019-04-21T12:55:55.795Z,28.23
2019-04-21T12:58:27.077Z,27.81
2019-04-21T13:00:58.973Z,27.78
2019-04-21T13:03:32.061Z,28.28
2019-04-21T13:06:05.460Z,28.42
2019-04-21T13:08:47.221Z,27.49
2019-04-21T13:11:11.519Z,28.19
2019-04-21T13:13:43.878Z,27.97
2019-04-21T13:16:15.829Z,28.36
2019-04-21T13:18:49.114Z,27.23
2019-04-21T13:21:22.342Z,27.17
2019-04-21T13:23:54.801Z,27.58
2019-04-21T13:26:34.458Z,27.74
2019-04-21T13:29:00.507Z,27.51
2019-04-21T13:31:34.242Z,27.64
2019-04-21T13:34:06.362Z,27.99
2019-04-21T13:36:39.296Z,28.44
2019-04-21T13:39:55.471Z,28.89
2019-04-21T13:42:13.450Z,28.60
2019-04-21T13:44:41.221Z,28.17
2019-04-21T13:47:14.447Z,27.98
2019-04-21T13:49:47.660Z,27.76
2019-04-21T13:52:20.590Z,27.80
2019-04-21T13:54:53.771Z,28.15
2019-04-21T13:57:28.536Z,28.34
2019-04-21T13:59:59.244Z,28.45
2019-04-21T14:02:32.468Z,28.54
2019-04-21T14:05:05.277Z,28.86
2019-04-21T14:07:38.210Z,29.27
2019-04-21T14:10:14.150Z,28.77
2019-04-21T14:12:46.701Z,29.09
2019-04-21T14:15:20.317Z,27.98
2019-04-21T14:17:53.100Z,27.79
2019-04-21T14:20:25.251Z,27.33
2019-04-21T14:23:10.241Z,27.37
2019-04-21T14:25:32.074Z,27.46
2019-04-21T14:28:04.104Z,27.38
2019-04-21T14:30:36.507Z,27.41
2019-04-21T14:33:09.896Z,27.13
2019-04-21T14:35:43.070Z,27.26
2019-04-21T14:38:14.491Z,27.46
2019-04-21T14:40:46.334Z,27.45
2019-04-21T14:43:18.486Z,27.68
2019-04-21T14:46:08.948Z,27.89
2019-04-21T14:48:59.210Z,28.09
2019-04-21T14:51:52.771Z,28.15
2019-04-21T14:54:44.574Z,27.97
2019-04-21T14:57:15.947Z,28.09
2019-04-21T14:59:47.080Z,27.45
2019-04-21T15:02:18.222Z,27.60
2019-04-21T15:04:51.237Z,27.21
2019-04-21T15:07:23.455Z,26.88
2019-04-21T15:10:04.415Z,27.24
2019-04-21T15:12:29.999Z,27.44
2019-04-21T15:15:02.210Z,27.72
2019-04-21T15:17:35.809Z,28.01
2019-04-21T15:20:14.297Z,27.23
2019-04-21T15:22:44.288Z,27.32
2019-04-21T15:25:16.321Z,27.58
2019-04-21T15:27:48.701Z,28.09
2019-04-21T15:30:20.836Z,27.64
2019-04-21T15:32:52.742Z,27.83
2019-04-21T15:35:24.978Z,27.75
2019-04-21T15:37:58.059Z,27.51
2019-04-21T15:40:40.748Z,27.99
2019-04-21T15:43:04.390Z,28.18
2019-04-21T15:45:37.105Z,28.64
2019-04-21T15:48:09.891Z,28.24
2019-04-21T15:50:44.035Z,27.96
2019-04-21T15:53:17.299Z,28.02
2019-04-21T15:56:02.544Z,27.80
2019-04-21T15:59:08.799Z,27.60
2019-04-21T16:02:08.409Z,28.05
2019-04-21T16:04:42.927Z,27.66
2019-04-21T16:07:16.024Z,27.93
2019-04-21T16:09:48.156Z,28.34
2019-04-21T16:12:19.915Z,27.99
2019-04-21T16:14:52.535Z,28.11
2019-04-21T16:17:25.401Z,28.15
2019-04-21T16:19:57.475Z,28.36
2019-04-21T16:22:30.545Z,27.83
2019-04-21T16:25:03.401Z,27.59
2019-04-21T16:27:35.410Z,27.39
2019-04-21T16:30:13.429Z,27.38
2019-04-21T16:32:46.357Z,28.07
2019-04-21T16:35:20.548Z,27.77
2019-04-21T16:37:55.922Z,27.80
2019-04-21T16:40:34.746Z,27.81
2019-04-21T16:43:01.543Z,27.84
2019-04-21T16:45:37.001Z,27.87
2019-04-21T16:48:16.986Z,27.34
2019-04-21T16:50:49.800Z,27.23
2019-04-21T16:53:28.503Z,27.27
2019-04-21T16:56:06.801Z,27.06
2019-04-21T16:58:43.021Z,26.88
2019-04-21T17:01:22.433Z,27.19
2019-04-21T17:03:55.611Z,27.48
2019-04-21T17:06:33.238Z,27.28
2019-04-21T17:09:10.675Z,26.97
2019-04-21T17:11:46.144Z,26.86
2019-04-21T17:14:32.891Z,26.80
2019-04-21T17:17:16.261Z,27.38
2019-04-21T17:19:29.199Z,27.29
2019-04-21T17:21:57.647Z,27.06
2019-04-21T17:24:30.603Z,26.71
2019-04-21T17:27:02.988Z,26.74
2019-04-21T17:29:36.587Z,27.18
2019-04-21T17:32:12.205Z,27.82
2019-04-21T17:34:47.873Z,28.07
2019-04-21T17:37:25.421Z,28.07
2019-04-21T17:39:58.755Z,27.95
2019-04-21T17:42:42.970Z,28.24
2019-04-21T17:45:06.598Z,28.46
2019-04-21T17:47:45.758Z,28.83
2019-04-21T17:50:43.662Z,28.99
2019-04-21T17:53:32.717Z,29.20
2019-04-21T17:56:20.651Z,29.63
2019-04-21T17:58:52.636Z,30.10
2019-04-21T18:01:35.596Z,30.04
2019-04-21T18:04:06.326Z,30.53
2019-04-21T18:07:26.535Z,30.64
2019-04-21T18:10:04.754Z,30.79
2019-04-21T18:12:33.716Z,31.06
2019-04-21T18:15:02.466Z,31.37
2019-04-21T18:17:26.748Z,31.78
2019-04-21T18:19:59.708Z,32.09
2019-04-21T18:22:58.573Z,32.34
2019-04-21T18:25:42.318Z,32.79
2019-04-21T18:28:04.909Z,32.93
2019-04-21T18:30:48.721Z,33.05
2019-04-21T18:33:31.312Z,33.57
2019-04-21T18:36:34.172Z,33.90
2019-04-21T18:39:32.533Z,34.13
2019-04-21T18:42:17.117Z,34.22
2019-04-21T18:48:26.683Z,35.66
2019-04-21T18:51:12.319Z,37.06
2019-04-21T18:54:19.320Z,37.42
2019-04-21T18:56:29.533Z,38.39
2019-04-21T18:59:02.470Z,37.83
2019-04-21T19:01:36.684Z,38.00
2019-04-21T19:04:16.756Z,38.62
2019-04-21T19:07:00.831Z,39.06
2019-04-21T19:09:47.612Z,39.39
2019-04-21T19:12:16.381Z,40.07
2019-04-21T19:14:38.753Z,40.26
2019-04-21T19:19:56.319Z,40.07
2019-04-21T19:22:23.053Z,40.17
2019-04-21T19:24:59.376Z,38.52
2019-04-21T19:27:26.602Z,38.44
2019-04-21T19:32:33.161Z,40.36
2019-04-21T19:34:58.161Z,41.25
2019-04-21T19:37:28.895Z,41.90
2019-04-21T19:40:11.902Z,41.48
2019-04-21T19:42:46.300Z,41.35
2019-04-21T19:45:22.505Z,41.66
2019-04-21T19:48:01.031Z,42.21
2019-04-21T19:50:42.521Z,42.28
2019-04-21T19:53:02.507Z,42.09
2019-04-21T19:55:24.736Z,42.20
2019-04-21T19:59:03.947Z,41.90
2019-04-21T20:01:41.698Z,42.05
2019-04-21T20:04:17.165Z,42.50
2019-04-21T20:07:01.155Z,42.92
2019-04-21T20:09:42.703Z,43.40
2019-04-21T20:12:20.054Z,44.16
2019-04-21T20:14:55.439Z,44.11
2019-04-21T20:17:17.720Z,43.90
2019-04-21T20:19:40.306Z,44.32
2019-04-21T20:22:11.829Z,44.67
2019-04-21T20:24:50.010Z,44.81
2019-04-21T20:27:31.149Z,45.67
2019-04-21T20:30:07.138Z,45.54
2019-04-21T20:32:53.137Z,45.92
2019-04-21T20:35:35.091Z,46.38
2019-04-21T20:37:55.042Z,45.97
2019-04-21T20:40:24.803Z,45.39
2019-04-21T20:43:16.495Z,45.89
2019-04-21T20:45:47.581Z,45.47
2019-04-21T20:48:13.857Z,45.07
2019-04-21T20:51:00.396Z,45.10
2019-04-21T20:53:30.320Z,45.45
2019-04-21T20:55:59.115Z,45.89
2019-04-21T20:58:34.588Z,46.06
2019-04-21T21:01:28.117Z,46.13
2019-04-21T21:03:44.347Z,46.06
2019-04-21T21:06:16.147Z,45.86
2019-04-21T21:08:50.409Z,46.21
2019-04-21T21:11:24.564Z,46.66
2019-04-21T21:13:58.849Z,47.14
2019-04-21T21:16:35.493Z,47.26
2019-04-21T21:19:18.607Z,47.19
2019-04-21T21:21:34.480Z,47.09
2019-04-21T21:24:08.540Z,47.12
2019-04-21T21:26:51.776Z,47.62
2019-04-21T21:29:25.205Z,48.13
2019-04-21T21:32:04.337Z,47.64
2019-04-21T21:34:34.520Z,47.43
2019-04-21T21:37:14.133Z,47.21
2019-04-21T21:39:49.174Z,47.79
2019-04-21T21:41:56.574Z,47.80
2019-04-21T21:44:28.203Z,47.85
2019-04-21T21:47:10.787Z,47.92
2019-04-21T21:49:42.688Z,48.13
2019-04-21T21:52:18.048Z,48.29
2019-04-21T21:54:40.159Z,48.36
2019-04-21T21:57:12.435Z,48.88
2019-04-21T21:59:45.425Z,48.97
2019-04-21T22:02:28.364Z,48.78
2019-04-21T22:04:58.240Z,48.94
2019-04-21T22:07:28.030Z,49.16
2019-04-21T22:09:58.032Z,48.80
2019-04-21T22:12:40.415Z,48.66
2019-04-21T22:15:10.857Z,48.37
2019-04-21T22:17:55.926Z,48.25
2019-04-21T22:20:27.202Z,48.44
2019-04-21T22:22:51.714Z,47.83
2019-04-21T22:25:24.408Z,47.31
2019-04-21T22:27:51.274Z,46.51
2019-04-21T22:30:30.248Z,45.52
2019-04-21T22:33:06.370Z,45.25
2019-04-21T22:35:41.845Z,45.03
2019-04-21T22:38:19.059Z,44.29
2019-04-21T22:40:51.884Z,43.88
2019-04-21T22:43:24.249Z,43.64
2019-04-21T22:45:47.371Z,42.80
2019-04-21T22:48:23.604Z,42.97
2019-04-21T22:50:53.591Z,43.61
2019-04-21T22:53:29.307Z,43.38
2019-04-21T22:56:09.944Z,43.62
2019-04-21T22:58:37.395Z,43.28
2019-04-21T23:01:07.732Z,43.28
2019-04-21T23:03:49.247Z,43.31
2019-04-21T23:06:21.206Z,43.68
2019-04-21T23:08:49.840Z,43.05
2019-04-21T23:11:28.012Z,43.45
2019-04-21T23:14:04.314Z,43.45
2019-04-21T23:16:35.718Z,43.59
2019-04-21T23:19:19.789Z,44.37
2019-04-21T23:21:58.169Z,44.16
2019-04-21T23:24:34.916Z,44.81
2019-04-21T23:26:58.175Z,44.95
2019-04-21T23:29:48.326Z,45.21
2019-04-21T23:32:08.533Z,45.58
2019-04-21T23:34:32.436Z,45.55
2019-04-21T23:37:08.892Z,45.12
2019-04-21T23:39:37.318Z,45.49
2019-04-21T23:42:09.191Z,45.33
2019-04-21T23:44:47.043Z,45.74
2019-04-21T23:47:29.358Z,46.21
2019-04-21T23:50:00.269Z,46.35
2019-04-21T23:52:25.639Z,46.68
2019-04-21T23:54:58.927Z,47.04
2019-04-21T23:57:37.648Z,46.46
